createdAt,value
2022-07-29T00:01:43.864Z,19.73
2022-07-29T00:04:11.936Z,19.74
2022-07-29T00:06:39.912Z,19.84
2022-07-29T00:09:08.300Z,19.83
2022-07-29T00:11:37.508Z,19.80
2022-07-29T00:14:06.797Z,19.78
2022-07-29T00:16:34.755Z,19.84
2022-07-29T00:19:02.701Z,19.73
2022-07-29T00:21:30.716Z,19.62
2022-07-29T00:23:58.547Z,19.39
2022-07-29T00:26:28.657Z,19.09
2022-07-29T00:29:23.711Z,18.76
2022-07-29T00:31:45.720Z,18.62
2022-07-29T00:34:27.601Z,18.61
2022-07-29T00:36:55.423Z,18.48
2022-07-29T00:39:23.529Z,18.43
2022-07-29T00:41:51.957Z,18.36
2022-07-29T00:44:22.431Z,18.37
2022-07-29T00:46:50.319Z,18.41
2022-07-29T00:49:18.461Z,18.41
2022-07-29T00:51:46.445Z,18.40
2022-07-29T00:54:14.917Z,18.48
2022-07-29T00:56:42.988Z,18.65
2022-07-29T00:59:10.836Z,18.82
2022-07-29T01:01:40.108Z,18.73
2022-07-29T01:04:09.043Z,18.87
2022-07-29T01:06:37.170Z,19.03
2022-07-29T01:09:05.162Z,18.85
2022-07-29T01:11:33.382Z,18.82
2022-07-29T01:14:03.131Z,18.89
2022-07-29T01:16:34.794Z,18.75
2022-07-29T01:19:14.997Z,18.72
2022-07-29T01:21:53.331Z,18.55
2022-07-29T01:24:41.843Z,18.51
2022-07-29T01:27:28.340Z,18.30
2022-07-29T01:30:01.675Z,18.21
2022-07-29T01:32:37.275Z,17.96
2022-07-29T01:35:10.761Z,17.93
2022-07-29T01:37:45.155Z,18.00
2022-07-29T01:40:20.474Z,17.97
2022-07-29T01:42:52.639Z,17.94
2022-07-29T01:45:26.891Z,18.00
2022-07-29T01:48:02.417Z,17.87
2022-07-29T01:50:35.297Z,17.75
2022-07-29T01:53:06.555Z,17.97
2022-07-29T01:55:38.746Z,17.86
2022-07-29T01:58:07.688Z,17.75
2022-07-29T02:00:38.023Z,17.72
2022-07-29T02:03:11.251Z,17.72
2022-07-29T02:05:41.043Z,17.89
2022-07-29T02:08:10.146Z,17.73
2022-07-29T02:10:44.300Z,17.86
2022-07-29T02:13:14.688Z,17.83
2022-07-29T02:15:45.454Z,17.80
2022-07-29T02:18:17.465Z,17.72
2022-07-29T02:20:48.960Z,17.63
2022-07-29T02:23:20.519Z,17.75
2022-07-29T02:25:50.912Z,17.75
2022-07-29T02:28:22.208Z,17.70
2022-07-29T02:30:54.248Z,17.53
2022-07-29T02:33:23.800Z,17.55
2022-07-29T02:35:53.901Z,17.65
2022-07-29T02:38:41.885Z,17.73
2022-07-29T02:41:13.948Z,17.76
2022-07-29T02:43:44.174Z,17.94
2022-07-29T02:46:28.737Z,18.07
2022-07-29T02:49:03.396Z,18.07
2022-07-29T02:51:43.673Z,18.20
2022-07-29T02:54:23.606Z,18.26
2022-07-29T02:56:54.639Z,18.20
2022-07-29T02:59:27.015Z,18.44
2022-07-29T03:01:57.357Z,18.21
2022-07-29T03:04:29.365Z,18.23
2022-07-29T03:07:01.383Z,18.23
2022-07-29T03:09:30.034Z,18.34
2022-07-29T03:11:59.009Z,18.47
2022-07-29T03:14:27.483Z,18.47
2022-07-29T03:16:57.223Z,18.36
2022-07-29T03:19:25.138Z,18.26
2022-07-29T03:21:53.721Z,18.14
2022-07-29T03:24:33.170Z,18.14
2022-07-29T03:27:01.421Z,17.92
2022-07-29T03:29:33.008Z,18.07
2022-07-29T03:32:07.200Z,18.03
2022-07-29T03:34:35.924Z,18.00
2022-07-29T03:37:03.755Z,17.92
2022-07-29T03:39:35.215Z,17.92
2022-07-29T03:42:04.086Z,18.07
2022-07-29T03:44:33.892Z,18.01
2022-07-29T03:47:04.290Z,17.85
2022-07-29T03:49:34.278Z,17.70
2022-07-29T03:52:02.498Z,18.00
2022-07-29T03:54:30.312Z,18.14
2022-07-29T03:57:01.691Z,17.93
2022-07-29T03:59:29.785Z,17.76
2022-07-29T04:01:58.936Z,17.61
2022-07-29T04:04:28.707Z,17.61
2022-07-29T04:06:56.604Z,17.65
2022-07-29T04:09:24.499Z,17.73
2022-07-29T04:12:03.481Z,17.73
2022-07-29T04:14:32.778Z,17.90
2022-07-29T04:17:00.836Z,18.11
2022-07-29T04:19:30.207Z,18.11
2022-07-29T04:21:59.258Z,17.90
2022-07-29T04:24:27.254Z,17.94
2022-07-29T04:26:55.664Z,17.93
2022-07-29T04:29:23.490Z,18.10
2022-07-29T04:31:51.310Z,18.24
2022-07-29T04:34:19.695Z,18.24
2022-07-29T04:36:49.263Z,17.94
2022-07-29T04:39:22.693Z,18.18
2022-07-29T04:41:52.545Z,17.90
2022-07-29T04:44:28.760Z,17.63
2022-07-29T04:46:57.963Z,17.55
2022-07-29T04:49:25.989Z,17.36
2022-07-29T04:51:55.415Z,17.45
2022-07-29T04:54:23.392Z,17.28
2022-07-29T04:56:54.918Z,17.52
2022-07-29T04:59:22.769Z,17.69
2022-07-29T05:01:50.695Z,17.75
2022-07-29T05:04:19.130Z,17.85
2022-07-29T05:06:47.477Z,17.68
2022-07-29T05:09:17.049Z,17.73
2022-07-29T05:11:44.906Z,17.69
2022-07-29T05:14:12.990Z,17.58
2022-07-29T05:16:41.237Z,17.55
2022-07-29T05:19:13.968Z,17.56
2022-07-29T05:21:42.389Z,17.62
2022-07-29T05:24:10.282Z,17.69
2022-07-29T05:26:39.671Z,17.73
2022-07-29T05:29:07.685Z,17.70
2022-07-29T05:31:55.503Z,17.42
2022-07-29T05:34:23.425Z,17.36
2022-07-29T05:36:51.853Z,17.48
2022-07-29T05:39:19.989Z,17.43
2022-07-29T05:41:51.977Z,17.31
2022-07-29T05:44:20.063Z,17.39
2022-07-29T05:46:47.995Z,17.66
2022-07-29T05:49:22.972Z,17.63
2022-07-29T05:51:55.229Z,17.59
2022-07-29T05:54:23.060Z,17.63
2022-07-29T05:56:55.366Z,17.72
2022-07-29T05:59:27.078Z,17.83
2022-07-29T06:01:58.148Z,17.80
2022-07-29T06:04:26.399Z,17.69
2022-07-29T06:06:54.341Z,17.45
2022-07-29T06:09:22.129Z,17.45
2022-07-29T06:11:49.908Z,17.35
2022-07-29T06:14:19.504Z,17.52
2022-07-29T06:16:47.938Z,17.72
2022-07-29T06:19:15.804Z,17.89
2022-07-29T06:21:44.475Z,17.69
2022-07-29T06:24:13.304Z,17.79
2022-07-29T06:26:41.847Z,17.96
2022-07-29T06:29:11.563Z,17.83
2022-07-29T06:31:41.454Z,17.85
2022-07-29T06:34:09.319Z,17.80
2022-07-29T06:36:37.907Z,17.83
2022-07-29T06:39:07.886Z,17.79
2022-07-29T06:41:36.496Z,17.78
2022-07-29T06:44:10.920Z,17.89
2022-07-29T06:46:40.420Z,17.89
2022-07-29T06:49:08.597Z,17.76
2022-07-29T06:51:36.957Z,17.80
2022-07-29T06:54:06.547Z,17.83
2022-07-29T06:56:39.163Z,17.92
2022-07-29T06:59:09.202Z,18.00
2022-07-29T07:01:38.198Z,18.06
2022-07-29T07:04:07.513Z,18.34
2022-07-29T07:06:35.238Z,18.75
2022-07-29T07:09:03.590Z,19.93
2022-07-29T07:11:31.574Z,20.14
2022-07-29T07:14:03.099Z,20.55
2022-07-29T07:16:32.404Z,20.80
2022-07-29T07:19:00.465Z,22.33
2022-07-29T07:21:30.618Z,22.15
2022-07-29T07:23:58.962Z,23.14
2022-07-29T07:26:27.332Z,24.98
2022-07-29T07:28:55.357Z,24.53
2022-07-29T07:31:23.380Z,25.02
2022-07-29T07:33:52.601Z,26.18
2022-07-29T07:36:20.435Z,25.30
2022-07-29T07:38:49.906Z,24.72
2022-07-29T07:41:17.907Z,25.20
2022-07-29T07:43:45.763Z,24.75
2022-07-29T07:46:16.645Z,24.37
2022-07-29T07:48:44.533Z,24.84
2022-07-29T07:51:12.661Z,25.42
2022-07-29T07:53:40.511Z,25.40
2022-07-29T07:56:12.970Z,25.05
2022-07-29T07:58:41.113Z,24.50
2022-07-29T08:01:10.127Z,24.58
2022-07-29T08:03:38.415Z,24.33
2022-07-29T08:06:06.850Z,25.07
2022-07-29T08:08:34.870Z,25.07
2022-07-29T08:11:09.081Z,24.54
2022-07-29T08:13:40.116Z,23.49
2022-07-29T08:16:16.336Z,24.26
2022-07-29T08:18:45.778Z,23.83
2022-07-29T08:21:15.220Z,25.25
2022-07-29T08:23:52.989Z,24.74
2022-07-29T08:26:29.225Z,24.20
2022-07-29T08:28:58.428Z,23.49
2022-07-29T08:31:26.295Z,22.98
2022-07-29T08:33:54.233Z,22.63
2022-07-29T08:36:22.894Z,22.32
2022-07-29T08:38:51.888Z,22.23
2022-07-29T08:41:20.351Z,22.45
2022-07-29T08:43:48.481Z,22.40
2022-07-29T08:46:18.480Z,22.40
2022-07-29T08:48:46.584Z,22.13
2022-07-29T08:51:16.204Z,21.81
2022-07-29T08:53:45.705Z,21.89
2022-07-29T08:56:14.630Z,22.01
2022-07-29T08:58:45.711Z,21.86
2022-07-29T09:01:35.852Z,22.06
2022-07-29T09:04:14.293Z,22.28
2022-07-29T09:06:46.355Z,22.47
2022-07-29T09:09:16.572Z,22.63
2022-07-29T09:11:45.225Z,23.01
2022-07-29T09:14:14.992Z,23.19
2022-07-29T09:16:55.915Z,23.68
2022-07-29T09:19:26.615Z,24.92
2022-07-29T09:22:03.231Z,24.51
2022-07-29T09:24:43.838Z,24.34
2022-07-29T09:27:20.313Z,24.63
2022-07-29T09:29:48.220Z,25.40
2022-07-29T09:32:17.410Z,27.04
2022-07-29T09:34:45.249Z,27.78
2022-07-29T09:37:13.193Z,28.18
2022-07-29T09:39:46.642Z,28.28
2022-07-29T09:42:15.927Z,27.81
2022-07-29T09:44:46.805Z,26.80
2022-07-29T09:47:14.737Z,28.00
2022-07-29T09:49:59.079Z,28.33
2022-07-29T09:52:28.007Z,28.64
2022-07-29T09:55:06.733Z,29.25
2022-07-29T09:57:34.584Z,29.68
2022-07-29T10:00:06.363Z,28.72
2022-07-29T10:02:41.172Z,29.15
2022-07-29T10:05:19.668Z,29.72
2022-07-29T10:07:51.885Z,29.21
2022-07-29T10:10:23.579Z,29.01
2022-07-29T10:12:56.851Z,27.74
2022-07-29T10:15:26.613Z,27.19
2022-07-29T10:17:56.008Z,27.58
2022-07-29T10:20:26.049Z,28.56
2022-07-29T10:22:54.700Z,29.15
2022-07-29T10:25:25.415Z,29.27
2022-07-29T10:27:54.238Z,28.21
2022-07-29T10:30:23.530Z,29.21
2022-07-29T10:33:13.423Z,29.73
2022-07-29T10:36:04.086Z,29.55
2022-07-29T10:38:53.894Z,30.61
2022-07-29T10:41:44.679Z,30.33
2022-07-29T10:47:05.908Z,30.94
2022-07-29T10:49:33.825Z,30.88
2022-07-29T10:52:08.203Z,31.02
2022-07-29T10:54:51.514Z,30.43
2022-07-29T10:57:25.614Z,30.27
2022-07-29T11:00:32.372Z,29.35
2022-07-29T11:03:04.844Z,29.59
2022-07-29T11:05:56.341Z,29.73
2022-07-29T11:08:29.065Z,30.03
2022-07-29T11:11:37.810Z,29.58
2022-07-29T11:14:05.907Z,30.60
2022-07-29T11:17:08.113Z,31.41
2022-07-29T11:19:40.106Z,31.70
2022-07-29T11:22:10.386Z,31.10
2022-07-29T11:24:50.134Z,31.62
2022-07-29T11:27:20.951Z,30.71
2022-07-29T11:29:56.863Z,31.24
2022-07-29T11:32:29.297Z,30.78
2022-07-29T11:35:14.916Z,30.95
2022-07-29T11:37:52.625Z,31.39
2022-07-29T11:40:25.282Z,31.55
2022-07-29T11:42:55.024Z,31.26
2022-07-29T11:45:44.095Z,31.66
2022-07-29T11:48:28.864Z,31.98
2022-07-29T11:50:59.117Z,31.92
2022-07-29T11:53:28.996Z,31.76
2022-07-29T11:56:02.831Z,31.96
2022-07-29T11:58:32.193Z,31.18
2022-07-29T12:03:48.900Z,31.85
2022-07-29T12:06:18.329Z,31.19
2022-07-29T12:07:02.432Z,31.42
2022-07-29T12:09:08.808Z,31.96
2022-07-29T12:11:55.344Z,31.39
2022-07-29T12:14:27.768Z,30.17
2022-07-29T12:16:56.041Z,31.49
2022-07-29T12:19:24.291Z,31.70
2022-07-29T12:21:56.780Z,30.87
2022-07-29T12:24:27.615Z,31.08
2022-07-29T12:26:58.562Z,30.63
2022-07-29T12:29:33.750Z,29.90
2022-07-29T12:32:05.329Z,30.90
2022-07-29T12:34:34.314Z,30.99
2022-07-29T12:37:02.447Z,30.68
2022-07-29T12:39:32.367Z,30.91
2022-07-29T12:42:04.746Z,31.02
2022-07-29T12:44:46.163Z,30.64
2022-07-29T12:47:14.014Z,31.31
2022-07-29T12:49:42.156Z,30.92
2022-07-29T12:52:30.054Z,29.86
2022-07-29T12:54:58.673Z,28.04
2022-07-29T12:57:27.842Z,28.94
2022-07-29T13:00:08.971Z,29.48
2022-07-29T13:02:37.590Z,28.94
2022-07-29T13:05:07.218Z,29.38
2022-07-29T13:07:55.658Z,29.31
2022-07-29T13:10:25.757Z,30.32
2022-07-29T13:13:11.384Z,29.18
2022-07-29T13:15:40.304Z,28.35
2022-07-29T13:18:28.803Z,28.49
2022-07-29T13:20:57.494Z,28.25
2022-07-29T13:23:25.712Z,28.16
2022-07-29T13:25:53.496Z,27.61
2022-07-29T13:28:24.452Z,27.13
2022-07-29T13:30:52.299Z,27.23
2022-07-29T13:33:20.166Z,27.37
2022-07-29T13:35:48.439Z,27.61
2022-07-29T13:38:16.495Z,27.87
2022-07-29T13:40:44.652Z,27.84
2022-07-29T13:43:12.847Z,27.82
2022-07-29T13:45:42.186Z,28.09
2022-07-29T13:48:10.100Z,27.04
2022-07-29T13:50:37.875Z,26.98
2022-07-29T13:53:05.673Z,27.34
2022-07-29T13:55:33.541Z,27.61
2022-07-29T13:58:02.088Z,27.24
2022-07-29T14:00:32.184Z,27.46
2022-07-29T14:03:01.482Z,27.46
2022-07-29T14:05:29.377Z,27.55
2022-07-29T14:07:57.170Z,27.80
2022-07-29T14:10:24.998Z,27.87
2022-07-29T14:12:52.938Z,27.50
2022-07-29T14:15:21.253Z,27.30
2022-07-29T14:17:49.099Z,27.27
2022-07-29T14:20:18.962Z,27.44
2022-07-29T14:22:46.785Z,27.16
2022-07-29T14:25:15.737Z,27.24
2022-07-29T14:27:44.535Z,27.17
2022-07-29T14:30:12.555Z,26.75
2022-07-29T14:32:40.541Z,27.00
2022-07-29T14:35:09.795Z,26.79
2022-07-29T14:37:40.364Z,26.83
2022-07-29T14:40:09.920Z,26.44
2022-07-29T14:42:38.455Z,26.48
2022-07-29T14:45:07.790Z,26.52
2022-07-29T14:47:36.044Z,26.61
2022-07-29T14:50:04.551Z,26.71
2022-07-29T14:52:32.559Z,26.52
2022-07-29T14:55:01.792Z,26.51
2022-07-29T14:57:29.660Z,26.17
2022-07-29T14:59:57.807Z,26.18
2022-07-29T15:02:45.778Z,26.37
2022-07-29T15:05:13.569Z,26.37
2022-07-29T15:07:41.510Z,26.42
2022-07-29T15:10:10.902Z,26.14
2022-07-29T15:12:42.572Z,25.86
2022-07-29T15:15:11.043Z,25.26
2022-07-29T15:17:38.852Z,25.29
2022-07-29T15:20:07.742Z,25.54
2022-07-29T15:22:35.389Z,25.80
2022-07-29T15:25:03.203Z,25.69
2022-07-29T15:27:32.668Z,25.66
2022-07-29T15:30:00.668Z,25.71
2022-07-29T15:32:28.528Z,25.84
2022-07-29T15:34:56.350Z,25.79
2022-07-29T15:37:24.176Z,25.70
2022-07-29T15:39:52.038Z,25.67
2022-07-29T15:42:19.836Z,25.71
2022-07-29T15:44:48.993Z,25.83
2022-07-29T15:47:16.895Z,25.81
2022-07-29T15:49:47.721Z,25.76
2022-07-29T15:52:25.314Z,25.90
2022-07-29T15:54:54.887Z,26.13
2022-07-29T15:57:23.173Z,26.20
2022-07-29T15:59:52.796Z,26.30
2022-07-29T16:02:20.800Z,26.34
2022-07-29T16:04:48.636Z,26.34
2022-07-29T16:07:16.798Z,26.24
2022-07-29T16:09:50.878Z,26.22
2022-07-29T16:12:22.449Z,26.24
2022-07-29T16:14:52.079Z,26.35
2022-07-29T16:17:20.598Z,26.34
2022-07-29T16:19:48.403Z,26.32
2022-07-29T16:22:16.515Z,26.37
2022-07-29T16:24:45.156Z,26.27
2022-07-29T16:27:12.992Z,26.13
2022-07-29T16:29:40.816Z,26.07
2022-07-29T16:32:10.104Z,26.00
2022-07-29T16:34:38.026Z,26.00
2022-07-29T16:37:05.953Z,26.02
2022-07-29T16:39:33.824Z,25.98
2022-07-29T16:42:04.103Z,26.00
2022-07-29T16:44:34.768Z,26.07
2022-07-29T16:47:03.125Z,25.96
2022-07-29T16:49:32.695Z,25.74
2022-07-29T16:52:00.634Z,25.69
2022-07-29T16:54:28.973Z,25.66
2022-07-29T16:56:57.142Z,25.56
2022-07-29T16:59:25.483Z,25.40
2022-07-29T17:01:53.367Z,25.26
2022-07-29T17:04:22.974Z,25.12
2022-07-29T17:06:52.493Z,24.96
2022-07-29T17:09:21.058Z,24.92
2022-07-29T17:11:54.923Z,24.85
2022-07-29T17:14:25.512Z,24.65
2022-07-29T17:17:01.054Z,24.53
2022-07-29T17:19:30.935Z,24.43
2022-07-29T17:22:10.154Z,24.34
2022-07-29T17:24:40.939Z,24.31
2022-07-29T17:27:09.100Z,24.28
2022-07-29T17:29:36.875Z,24.36
2022-07-29T17:32:07.794Z,24.36
2022-07-29T17:34:36.285Z,24.31
2022-07-29T17:37:05.973Z,23.97
2022-07-29T17:39:35.111Z,24.07
2022-07-29T17:42:03.128Z,23.86
2022-07-29T17:44:31.394Z,23.83
2022-07-29T17:47:00.697Z,23.80
2022-07-29T17:49:29.213Z,23.65
2022-07-29T17:52:00.741Z,23.72
2022-07-29T17:54:30.373Z,23.70
2022-07-29T17:56:58.608Z,23.65
2022-07-29T17:59:27.070Z,23.62
2022-07-29T18:01:54.984Z,23.62
2022-07-29T18:04:23.588Z,23.58
2022-07-29T18:06:51.661Z,23.55
2022-07-29T18:09:19.851Z,23.56
2022-07-29T18:11:49.059Z,23.55
2022-07-29T18:14:16.982Z,23.51
2022-07-29T18:16:46.646Z,23.54
2022-07-29T18:19:14.556Z,23.46
2022-07-29T18:21:51.134Z,23.48
2022-07-29T18:24:22.836Z,23.52
2022-07-29T18:26:52.062Z,23.58
2022-07-29T18:29:19.869Z,23.59
2022-07-29T18:31:47.775Z,23.63
2022-07-29T18:34:16.983Z,23.66
2022-07-29T18:36:45.747Z,23.69
2022-07-29T18:39:19.158Z,23.62
2022-07-29T18:41:50.622Z,23.62
2022-07-29T18:44:21.822Z,23.58
2022-07-29T18:46:50.641Z,23.46
2022-07-29T18:49:18.889Z,23.44
2022-07-29T18:51:46.851Z,23.34
2022-07-29T18:54:14.825Z,23.24
2022-07-29T18:56:42.755Z,23.10
2022-07-29T18:59:11.407Z,22.88
2022-07-29T19:01:40.737Z,22.70
2022-07-29T19:04:08.617Z,22.59
2022-07-29T19:06:36.477Z,22.55
2022-07-29T19:09:04.606Z,22.39
2022-07-29T19:11:32.457Z,22.26
2022-07-29T19:14:00.364Z,22.16
2022-07-29T19:16:28.451Z,22.15
2022-07-29T19:18:57.708Z,21.98
2022-07-29T19:21:25.903Z,21.84
2022-07-29T19:24:05.996Z,21.79
2022-07-29T19:26:39.219Z,21.67
2022-07-29T19:29:07.174Z,21.50
2022-07-29T19:31:35.117Z,21.45
2022-07-29T19:34:04.610Z,21.47
2022-07-29T19:36:32.472Z,21.44
2022-07-29T19:39:00.520Z,21.37
2022-07-29T19:41:28.839Z,21.41
2022-07-29T19:43:56.724Z,21.34
2022-07-29T19:46:28.677Z,21.23
2022-07-29T19:48:57.507Z,21.07
2022-07-29T19:51:27.029Z,21.02
2022-07-29T19:53:54.946Z,20.97
2022-07-29T19:56:25.284Z,20.76
2022-07-29T19:58:53.221Z,20.71
2022-07-29T20:01:21.481Z,20.79
2022-07-29T20:03:49.396Z,20.87
2022-07-29T20:06:17.260Z,20.85
2022-07-29T20:08:46.432Z,20.92
2022-07-29T20:11:14.294Z,20.79
2022-07-29T20:13:42.090Z,20.87
2022-07-29T20:16:10.025Z,20.92
2022-07-29T20:18:37.938Z,20.92
2022-07-29T20:21:05.884Z,20.92
2022-07-29T20:23:33.816Z,20.79
2022-07-29T20:26:06.111Z,20.63
2022-07-29T20:28:37.107Z,20.65
2022-07-29T20:31:05.013Z,20.77
2022-07-29T20:33:32.918Z,20.85
2022-07-29T20:36:00.760Z,20.69
2022-07-29T20:38:30.610Z,20.63
2022-07-29T20:40:58.727Z,20.68
2022-07-29T20:43:28.165Z,20.75
2022-07-29T20:45:56.132Z,20.61
2022-07-29T20:48:24.257Z,20.66
2022-07-29T20:50:52.897Z,20.69
2022-07-29T20:53:20.937Z,20.63
2022-07-29T20:55:48.844Z,20.59
2022-07-29T20:58:16.649Z,20.59
2022-07-29T21:00:45.922Z,20.48
2022-07-29T21:03:14.074Z,20.38
2022-07-29T21:05:43.899Z,20.36
2022-07-29T21:08:12.373Z,20.42
2022-07-29T21:10:40.243Z,20.34
2022-07-29T21:13:08.058Z,20.35
2022-07-29T21:15:36.263Z,20.22
2022-07-29T21:18:09.319Z,20.14
2022-07-29T21:20:37.183Z,20.24
2022-07-29T21:23:05.078Z,20.21
2022-07-29T21:25:34.319Z,20.21
2022-07-29T21:28:19.735Z,20.15
2022-07-29T21:30:47.605Z,20.11
2022-07-29T21:33:16.979Z,20.20
2022-07-29T21:36:01.765Z,20.15
2022-07-29T21:38:33.360Z,19.93
2022-07-29T21:41:01.905Z,19.67
2022-07-29T21:43:29.799Z,19.49
2022-07-29T21:45:58.223Z,19.29
2022-07-29T21:48:29.309Z,19.16
2022-07-29T21:50:57.725Z,19.01
2022-07-29T21:53:27.787Z,18.81
2022-07-29T21:55:55.700Z,18.69
2022-07-29T21:58:24.645Z,18.60
2022-07-29T22:00:52.732Z,18.48
2022-07-29T22:03:20.753Z,18.36
2022-07-29T22:05:49.993Z,18.23
2022-07-29T22:08:17.824Z,18.13
2022-07-29T22:10:45.622Z,18.03
2022-07-29T22:13:13.453Z,18.00
2022-07-29T22:15:46.685Z,17.90
2022-07-29T22:18:20.420Z,17.82
2022-07-29T22:20:50.174Z,17.83
2022-07-29T22:23:18.109Z,17.99
2022-07-29T22:25:45.943Z,18.13
2022-07-29T22:28:13.804Z,18.00
2022-07-29T22:30:41.772Z,17.93
2022-07-29T22:33:09.623Z,18.01
2022-07-29T22:35:48.867Z,17.92
2022-07-29T22:38:18.875Z,17.82
2022-07-29T22:40:48.763Z,17.66
2022-07-29T22:43:18.842Z,17.53
2022-07-29T22:45:46.798Z,17.41
2022-07-29T22:48:14.691Z,17.32
2022-07-29T22:50:42.816Z,17.25
2022-07-29T22:53:10.908Z,17.17
2022-07-29T22:55:40.191Z,17.12
2022-07-29T22:58:08.096Z,17.08
2022-07-29T23:00:37.305Z,17.31
2022-07-29T23:03:04.947Z,17.52
2022-07-29T23:05:33.426Z,17.62
2022-07-29T23:08:01.270Z,17.75
2022-07-29T23:10:29.651Z,17.83
2022-07-29T23:12:58.856Z,17.80
2022-07-29T23:15:26.755Z,17.59
2022-07-29T23:17:54.582Z,17.46
2022-07-29T23:20:22.558Z,17.41
2022-07-29T23:22:50.338Z,17.46
2022-07-29T23:25:18.241Z,17.43
2022-07-29T23:27:46.140Z,17.53
2022-07-29T23:30:15.512Z,17.61
2022-07-29T23:32:43.351Z,17.53
2022-07-29T23:35:11.495Z,17.43
2022-07-29T23:37:39.705Z,17.43
2022-07-29T23:40:13.996Z,17.43
2022-07-29T23:42:43.548Z,17.41
2022-07-29T23:45:12.626Z,17.38
2022-07-29T23:47:42.955Z,17.28
2022-07-29T23:50:13.017Z,17.18
2022-07-29T23:52:41.338Z,17.18
2022-07-29T23:55:36.479Z,17.42
2022-07-29T23:57:57.317Z,17.72
